sensor_id;sensor_type;location;lat;lon;timestamp;P1;durP1;ratioP1;P2;durP2;ratioP2
37383;SDS011;23258;49.718;11.082;2023-02-21T00:00:14;11.40;;;8.32;;
37383;SDS011;23258;49.718;11.082;2023-02-21T00:02:56;7.35;;;6.35;;
37383;SDS011;23258;49.718;11.082;2023-02-21T00:05:38;5.60;;;5.10;;
37383;SDS011;23258;49.718;11.082;2023-02-21T00:08:20;4.90;;;3.95;;
37383;SDS011;23258;49.718;11.082;2023-02-21T00:11:05;5.25;;;3.10;;
37383;SDS011;23258;49.718;11.082;2023-02-21T00:13:49;3.13;;;2.88;;
37383;SDS011;23258;49.718;11.082;2023-02-21T00:16:31;3.92;;;2.80;;
37383;SDS011;23258;49.718;11.082;2023-02-21T00:19:13;2.75;;;2.55;;
37383;SDS011;23258;49.718;11.082;2023-02-21T00:21:55;3.55;;;2.70;;
37383;SDS011;23258;49.718;11.082;2023-02-21T00:24:37;3.15;;;2.90;;
37383;SDS011;23258;49.718;11.082;2023-02-21T00:27:22;3.08;;;2.88;;
37383;SDS011;23258;49.718;11.082;2023-02-21T00:30:05;3.85;;;3.35;;
37383;SDS011;23258;49.718;11.082;2023-02-21T00:32:48;8.38;;;3.35;;
37383;SDS011;23258;49.718;11.082;2023-02-21T00:35:32;3.92;;;2.60;;
37383;SDS011;23258;49.718;11.082;2023-02-21T00:38:14;5.03;;;3.20;;
37383;SDS011;23258;49.718;11.082;2023-02-21T00:40:56;3.55;;;3.05;;
37383;SDS011;23258;49.718;11.082;2023-02-21T00:43:42;4.75;;;3.38;;
37383;SDS011;23258;49.718;11.082;2023-02-21T00:46:24;4.72;;;3.00;;
37383;SDS011;23258;49.718;11.082;2023-02-21T00:49:07;3.63;;;2.58;;
37383;SDS011;23258;49.718;11.082;2023-02-21T00:51:49;3.72;;;2.80;;
37383;SDS011;23258;49.718;11.082;2023-02-21T00:54:31;4.88;;;2.55;;
37383;SDS011;23258;49.718;11.082;2023-02-21T00:57:15;4.38;;;2.58;;
37383;SDS011;23258;49.718;11.082;2023-02-21T00:59:59;2.40;;;2.28;;
37383;SDS011;23258;49.718;11.082;2023-02-21T01:02:41;2.70;;;2.50;;
37383;SDS011;23258;49.718;11.082;2023-02-21T01:05:23;6.47;;;2.58;;
37383;SDS011;23258;49.718;11.082;2023-02-21T01:08:05;3.38;;;2.55;;
37383;SDS011;23258;49.718;11.082;2023-02-21T01:10:47;3.47;;;2.85;;
37383;SDS011;23258;49.718;11.082;2023-02-21T01:13:29;3.47;;;2.50;;
37383;SDS011;23258;49.718;11.082;2023-02-21T01:16:14;4.10;;;3.05;;
37383;SDS011;23258;49.718;11.082;2023-02-21T01:18:56;6.63;;;3.08;;
37383;SDS011;23258;49.718;11.082;2023-02-21T01:21:38;4.05;;;2.55;;
37383;SDS011;23258;49.718;11.082;2023-02-21T01:24:20;4.70;;;3.25;;
37383;SDS011;23258;49.718;11.082;2023-02-21T01:27:03;3.72;;;3.20;;
37383;SDS011;23258;49.718;11.082;2023-02-21T01:29:47;4.88;;;3.10;;
37383;SDS011;23258;49.718;11.082;2023-02-21T01:32:32;3.97;;;3.50;;
37383;SDS011;23258;49.718;11.082;2023-02-21T01:35:14;4.53;;;3.00;;
37383;SDS011;23258;49.718;11.082;2023-02-21T01:37:56;3.75;;;2.63;;
37383;SDS011;23258;49.718;11.082;2023-02-21T01:40:38;6.65;;;2.67;;
37383;SDS011;23258;49.718;11.082;2023-02-21T01:43:21;4.75;;;3.63;;
37383;SDS011;23258;49.718;11.082;2023-02-21T01:46:04;6.57;;;3.40;;
37383;SDS011;23258;49.718;11.082;2023-02-21T01:48:50;6.78;;;2.72;;
37383;SDS011;23258;49.718;11.082;2023-02-21T01:51:34;4.45;;;3.00;;
37383;SDS011;23258;49.718;11.082;2023-02-21T01:54:17;6.40;;;3.37;;
37383;SDS011;23258;49.718;11.082;2023-02-21T01:57:01;3.50;;;3.20;;
37383;SDS011;23258;49.718;11.082;2023-02-21T01:59:43;5.07;;;3.15;;
37383;SDS011;23258;49.718;11.082;2023-02-21T02:02:28;2.80;;;2.60;;
37383;SDS011;23258;49.718;11.082;2023-02-21T02:05:13;4.28;;;3.03;;
37383;SDS011;23258;49.718;11.082;2023-02-21T02:07:55;5.20;;;3.20;;
37383;SDS011;23258;49.718;11.082;2023-02-21T02:10:38;4.78;;;3.25;;
37383;SDS011;23258;49.718;11.082;2023-02-21T02:13:25;5.30;;;3.30;;
37383;SDS011;23258;49.718;11.082;2023-02-21T02:15:58;4.40;;;2.85;;
37383;SDS011;23258;49.718;11.082;2023-02-21T02:18:44;2.85;;;2.65;;
37383;SDS011;23258;49.718;11.082;2023-02-21T02:32:42;2.83;;;2.63;;
37383;SDS011;23258;49.718;11.082;2023-02-21T02:35:20;3.60;;;2.78;;
37383;SDS011;23258;49.718;11.082;2023-02-21T02:37:53;4.38;;;2.92;;
37383;SDS011;23258;49.718;11.082;2023-02-21T02:40:25;3.83;;;3.03;;
37383;SDS011;23258;49.718;11.082;2023-02-21T02:43:00;8.43;;;4.55;;
37383;SDS011;23258;49.718;11.082;2023-02-21T02:45:33;6.65;;;3.83;;
37383;SDS011;23258;49.718;11.082;2023-02-21T02:48:07;5.05;;;3.88;;
37383;SDS011;23258;49.718;11.082;2023-02-21T02:50:41;4.63;;;4.18;;
37383;SDS011;23258;49.718;11.082;2023-02-21T02:53:15;9.13;;;4.70;;
37383;SDS011;23258;49.718;11.082;2023-02-21T02:55:46;6.75;;;4.13;;
37383;SDS011;23258;49.718;11.082;2023-02-21T02:58:17;5.25;;;4.72;;
37383;SDS011;23258;49.718;11.082;2023-02-21T03:00:50;4.65;;;3.40;;
37383;SDS011;23258;49.718;11.082;2023-02-21T03:03:31;4.22;;;3.83;;
37383;SDS011;23258;49.718;11.082;2023-02-21T03:06:12;5.20;;;3.95;;
37383;SDS011;23258;49.718;11.082;2023-02-21T03:08:46;8.02;;;4.28;;
37383;SDS011;23258;49.718;11.082;2023-02-21T03:11:20;4.38;;;3.97;;
37383;SDS011;23258;49.718;11.082;2023-02-21T03:13:52;4.50;;;4.10;;
37383;SDS011;23258;49.718;11.082;2023-02-21T03:16:24;5.05;;;4.00;;
37383;SDS011;23258;49.718;11.082;2023-02-21T03:18:56;5.75;;;4.28;;
37383;SDS011;23258;49.718;11.082;2023-02-21T03:21:30;4.03;;;3.60;;
37383;SDS011;23258;49.718;11.082;2023-02-21T03:24:00;4.50;;;3.85;;
37383;SDS011;23258;49.718;11.082;2023-02-21T03:26:32;4.57;;;3.75;;
37383;SDS011;23258;49.718;11.082;2023-02-21T03:29:23;10.75;;;4.38;;
37383;SDS011;23258;49.718;11.082;2023-02-21T03:31:55;7.57;;;3.90;;
37383;SDS011;23258;49.718;11.082;2023-02-21T03:34:26;6.60;;;3.50;;
37383;SDS011;23258;49.718;11.082;2023-02-21T03:36:58;4.68;;;3.40;;
37383;SDS011;23258;49.718;11.082;2023-02-21T03:39:29;4.20;;;3.85;;
37383;SDS011;23258;49.718;11.082;2023-02-21T03:41:58;6.50;;;4.28;;
37383;SDS011;23258;49.718;11.082;2023-02-21T03:44:29;4.20;;;3.80;;
37383;SDS011;23258;49.718;11.082;2023-02-21T03:46:59;4.18;;;3.78;;
37383;SDS011;23258;49.718;11.082;2023-02-21T03:49:28;5.55;;;4.32;;
37383;SDS011;23258;49.718;11.082;2023-02-21T03:52:00;6.13;;;4.13;;
37383;SDS011;23258;49.718;11.082;2023-02-21T03:54:30;5.43;;;4.15;;
37383;SDS011;23258;49.718;11.082;2023-02-21T03:57:00;5.35;;;3.80;;
37383;SDS011;23258;49.718;11.082;2023-02-21T03:59:37;6.05;;;3.97;;
37383;SDS011;23258;49.718;11.082;2023-02-21T04:02:07;3.88;;;3.58;;
37383;SDS011;23258;49.718;11.082;2023-02-21T04:04:36;8.98;;;4.43;;
37383;SDS011;23258;49.718;11.082;2023-02-21T04:07:12;4.30;;;3.85;;
37383;SDS011;23258;49.718;11.082;2023-02-21T04:09:42;8.45;;;4.60;;
37383;SDS011;23258;49.718;11.082;2023-02-21T04:12:15;5.30;;;3.17;;
37383;SDS011;23258;49.718;11.082;2023-02-21T04:14:45;5.72;;;4.38;;
37383;SDS011;23258;49.718;11.082;2023-02-21T04:17:15;6.13;;;3.97;;
37383;SDS011;23258;49.718;11.082;2023-02-21T04:19:44;4.13;;;3.72;;
37383;SDS011;23258;49.718;11.082;2023-02-21T04:22:17;3.95;;;3.45;;
37383;SDS011;23258;49.718;11.082;2023-02-21T04:24:48;3.72;;;3.08;;
37383;SDS011;23258;49.718;11.082;2023-02-21T04:27:18;6.57;;;4.03;;
37383;SDS011;23258;49.718;11.082;2023-02-21T04:29:52;3.88;;;3.47;;
37383;SDS011;23258;49.718;11.082;2023-02-21T04:32:22;3.53;;;3.22;;
37383;SDS011;23258;49.718;11.082;2023-02-21T04:34:52;4.78;;;4.28;;
37383;SDS011;23258;49.718;11.082;2023-02-21T04:37:25;6.53;;;3.78;;
37383;SDS011;23258;49.718;11.082;2023-02-21T04:39:56;9.57;;;3.60;;
37383;SDS011;23258;49.718;11.082;2023-02-21T04:42:26;6.47;;;3.45;;
37383;SDS011;23258;49.718;11.082;2023-02-21T04:44:55;5.72;;;3.70;;
37383;SDS011;23258;49.718;11.082;2023-02-21T04:47:27;4.05;;;3.67;;
37383;SDS011;23258;49.718;11.082;2023-02-21T04:49:56;5.55;;;3.58;;
37383;SDS011;23258;49.718;11.082;2023-02-21T04:52:28;4.45;;;3.58;;
37383;SDS011;23258;49.718;11.082;2023-02-21T04:54:58;3.53;;;2.95;;
37383;SDS011;23258;49.718;11.082;2023-02-21T04:57:28;6.57;;;3.47;;
37383;SDS011;23258;49.718;11.082;2023-02-21T04:59:58;3.63;;;3.28;;
37383;SDS011;23258;49.718;11.082;2023-02-21T05:02:28;3.38;;;3.08;;
37383;SDS011;23258;49.718;11.082;2023-02-21T05:04:57;3.53;;;3.22;;
37383;SDS011;23258;49.718;11.082;2023-02-21T05:07:29;3.55;;;3.25;;
37383;SDS011;23258;49.718;11.082;2023-02-21T05:09:59;3.45;;;3.13;;
37383;SDS011;23258;49.718;11.082;2023-02-21T05:12:31;5.05;;;4.15;;
37383;SDS011;23258;49.718;11.082;2023-02-21T05:15:00;5.13;;;4.13;;
37383;SDS011;23258;49.718;11.082;2023-02-21T05:17:30;5.47;;;3.78;;
37383;SDS011;23258;49.718;11.082;2023-02-21T05:19:59;6.05;;;4.05;;
37383;SDS011;23258;49.718;11.082;2023-02-21T05:22:32;5.88;;;4.82;;
37383;SDS011;23258;49.718;11.082;2023-02-21T05:25:04;6.70;;;4.18;;
37383;SDS011;23258;49.718;11.082;2023-02-21T05:27:34;5.10;;;3.72;;
37383;SDS011;23258;49.718;11.082;2023-02-21T05:30:04;7.38;;;4.40;;
37383;SDS011;23258;49.718;11.082;2023-02-21T05:32:33;6.22;;;4.88;;
37383;SDS011;23258;49.718;11.082;2023-02-21T05:35:03;6.53;;;4.78;;
37383;SDS011;23258;49.718;11.082;2023-02-21T05:37:35;6.68;;;5.47;;
37383;SDS011;23258;49.718;11.082;2023-02-21T05:40:06;5.50;;;5.00;;
37383;SDS011;23258;49.718;11.082;2023-02-21T05:42:35;7.32;;;5.38;;
37383;SDS011;23258;49.718;11.082;2023-02-21T05:45:05;12.48;;;6.32;;
37383;SDS011;23258;49.718;11.082;2023-02-21T05:47:35;9.10;;;6.32;;
37383;SDS011;23258;49.718;11.082;2023-02-21T05:50:05;11.15;;;6.43;;
37383;SDS011;23258;49.718;11.082;2023-02-21T05:52:37;16.17;;;7.25;;
37383;SDS011;23258;49.718;11.082;2023-02-21T05:55:07;11.57;;;7.07;;
37383;SDS011;23258;49.718;11.082;2023-02-21T05:57:37;11.68;;;7.05;;
37383;SDS011;23258;49.718;11.082;2023-02-21T06:00:11;15.27;;;8.52;;
37383;SDS011;23258;49.718;11.082;2023-02-21T06:02:42;11.10;;;7.70;;
37383;SDS011;23258;49.718;11.082;2023-02-21T06:05:11;14.32;;;7.25;;
37383;SDS011;23258;49.718;11.082;2023-02-21T06:07:43;14.57;;;7.13;;
37383;SDS011;23258;49.718;11.082;2023-02-21T06:10:14;13.40;;;7.43;;
37383;SDS011;23258;49.718;11.082;2023-02-21T06:12:43;11.73;;;7.13;;
37383;SDS011;23258;49.718;11.082;2023-02-21T06:15:13;15.27;;;8.43;;
37383;SDS011;23258;49.718;11.082;2023-02-21T06:17:43;16.88;;;10.05;;
37383;SDS011;23258;49.718;11.082;2023-02-21T06:20:13;21.05;;;10.52;;
37383;SDS011;23258;49.718;11.082;2023-02-21T06:22:45;16.35;;;8.45;;
37383;SDS011;23258;49.718;11.082;2023-02-21T06:25:15;13.15;;;8.27;;
37383;SDS011;23258;49.718;11.082;2023-02-21T06:27:45;9.27;;;7.60;;
37383;SDS011;23258;49.718;11.082;2023-02-21T06:30:15;7.68;;;6.57;;
37383;SDS011;23258;49.718;11.082;2023-02-21T06:32:47;9.25;;;6.35;;
37383;SDS011;23258;49.718;11.082;2023-02-21T06:35:16;11.73;;;6.53;;
37383;SDS011;23258;49.718;11.082;2023-02-21T06:37:48;12.35;;;7.97;;
37383;SDS011;23258;49.718;11.082;2023-02-21T06:40:18;12.15;;;6.95;;
37383;SDS011;23258;49.718;11.082;2023-02-21T06:42:48;17.70;;;7.05;;
37383;SDS011;23258;49.718;11.082;2023-02-21T06:45:17;19.35;;;9.23;;
37383;SDS011;23258;49.718;11.082;2023-02-21T06:47:47;17.65;;;9.60;;
37383;SDS011;23258;49.718;11.082;2023-02-21T06:50:16;23.55;;;11.48;;
37383;SDS011;23258;49.718;11.082;2023-02-21T06:52:49;20.48;;;11.35;;
37383;SDS011;23258;49.718;11.082;2023-02-21T06:55:19;24.38;;;12.27;;
37383;SDS011;23258;49.718;11.082;2023-02-21T06:57:51;21.70;;;12.20;;
37383;SDS011;23258;49.718;11.082;2023-02-21T07:00:20;24.30;;;12.65;;
37383;SDS011;23258;49.718;11.082;2023-02-21T07:02:52;20.63;;;11.77;;
37383;SDS011;23258;49.718;11.082;2023-02-21T07:05:22;17.33;;;11.32;;
37383;SDS011;23258;49.718;11.082;2023-02-21T07:07:54;18.77;;;11.60;;
37383;SDS011;23258;49.718;11.082;2023-02-21T07:10:24;21.45;;;11.55;;
37383;SDS011;23258;49.718;11.082;2023-02-21T07:12:53;22.38;;;10.60;;
37383;SDS011;23258;49.718;11.082;2023-02-21T07:15:23;20.95;;;11.60;;
37383;SDS011;23258;49.718;11.082;2023-02-21T07:17:52;18.25;;;10.07;;
37383;SDS011;23258;49.718;11.082;2023-02-21T07:20:22;18.45;;;8.77;;
37383;SDS011;23258;49.718;11.082;2023-02-21T07:22:54;15.23;;;9.85;;
37383;SDS011;23258;49.718;11.082;2023-02-21T07:25:24;17.75;;;8.85;;
37383;SDS011;23258;49.718;11.082;2023-02-21T07:27:53;19.00;;;9.85;;
37383;SDS011;23258;49.718;11.082;2023-02-21T07:30:23;16.23;;;10.82;;
37383;SDS011;23258;49.718;11.082;2023-02-21T07:32:52;21.05;;;10.93;;
37383;SDS011;23258;49.718;11.082;2023-02-21T07:35:22;20.85;;;10.63;;
37383;SDS011;23258;49.718;11.082;2023-02-21T07:37:54;21.40;;;10.48;;
37383;SDS011;23258;49.718;11.082;2023-02-21T07:40:24;20.35;;;11.63;;
37383;SDS011;23258;49.718;11.082;2023-02-21T07:42:53;16.23;;;9.77;;
37383;SDS011;23258;49.718;11.082;2023-02-21T07:45:23;15.82;;;9.63;;
37383;SDS011;23258;49.718;11.082;2023-02-21T07:47:53;14.00;;;8.10;;
37383;SDS011;23258;49.718;11.082;2023-02-21T07:50:22;14.73;;;8.18;;
37383;SDS011;23258;49.718;11.082;2023-02-21T07:52:54;10.55;;;7.55;;
37383;SDS011;23258;49.718;11.082;2023-02-21T07:55:25;13.05;;;7.30;;
37383;SDS011;23258;49.718;11.082;2023-02-21T07:57:54;10.40;;;7.20;;
37383;SDS011;23258;49.718;11.082;2023-02-21T08:00:24;14.15;;;6.68;;
37383;SDS011;23258;49.718;11.082;2023-02-21T08:02:54;9.30;;;6.00;;
37383;SDS011;23258;49.718;11.082;2023-02-21T08:05:23;11.65;;;6.13;;
37383;SDS011;23258;49.718;11.082;2023-02-21T08:07:55;9.95;;;6.95;;
37383;SDS011;23258;49.718;11.082;2023-02-21T08:10:25;8.15;;;5.63;;
37383;SDS011;23258;49.718;11.082;2023-02-21T08:12:55;9.73;;;5.97;;
37383;SDS011;23258;49.718;11.082;2023-02-21T08:15:25;8.63;;;5.20;;
37383;SDS011;23258;49.718;11.082;2023-02-21T08:17:54;6.97;;;5.32;;
37383;SDS011;23258;49.718;11.082;2023-02-21T08:20:24;7.70;;;5.90;;
37383;SDS011;23258;49.718;11.082;2023-02-21T08:22:56;8.43;;;5.15;;
37383;SDS011;23258;49.718;11.082;2023-02-21T08:25:26;6.15;;;4.97;;
37383;SDS011;23258;49.718;11.082;2023-02-21T08:27:55;8.27;;;5.50;;
37383;SDS011;23258;49.718;11.082;2023-02-21T08:30:25;10.32;;;5.13;;
37383;SDS011;23258;49.718;11.082;2023-02-21T08:32:54;7.35;;;5.63;;
37383;SDS011;23258;49.718;11.082;2023-02-21T08:35:24;6.95;;;5.32;;
37383;SDS011;23258;49.718;11.082;2023-02-21T08:37:56;7.60;;;5.70;;
37383;SDS011;23258;49.718;11.082;2023-02-21T08:40:29;10.50;;;6.10;;
37383;SDS011;23258;49.718;11.082;2023-02-21T08:42:59;7.55;;;5.45;;
37383;SDS011;23258;49.718;11.082;2023-02-21T08:45:28;8.13;;;5.18;;
37383;SDS011;23258;49.718;11.082;2023-02-21T08:47:58;7.20;;;5.55;;
37383;SDS011;23258;49.718;11.082;2023-02-21T08:50:27;7.60;;;5.57;;
37383;SDS011;23258;49.718;11.082;2023-02-21T08:53:01;6.40;;;4.72;;
37383;SDS011;23258;49.718;11.082;2023-02-21T08:55:31;10.48;;;5.22;;
37383;SDS011;23258;49.718;11.082;2023-02-21T08:58:00;7.00;;;5.40;;
37383;SDS011;23258;49.718;11.082;2023-02-21T09:00:30;6.65;;;5.53;;
37383;SDS011;23258;49.718;11.082;2023-02-21T09:02:59;6.38;;;5.22;;
37383;SDS011;23258;49.718;11.082;2023-02-21T09:05:30;4.97;;;4.43;;
37383;SDS011;23258;49.718;11.082;2023-02-21T09:08:02;9.02;;;5.72;;
37383;SDS011;23258;49.718;11.082;2023-02-21T09:10:35;8.75;;;5.07;;
37383;SDS011;23258;49.718;11.082;2023-02-21T09:13:13;8.23;;;5.45;;
37383;SDS011;23258;49.718;11.082;2023-02-21T09:15:42;7.18;;;4.68;;
37383;SDS011;23258;49.718;11.082;2023-02-21T09:18:12;6.60;;;4.60;;
37383;SDS011;23258;49.718;11.082;2023-02-21T09:20:41;7.18;;;5.00;;
37383;SDS011;23258;49.718;11.082;2023-02-21T09:23:20;6.63;;;4.57;;
37383;SDS011;23258;49.718;11.082;2023-02-21T09:25:50;4.95;;;4.00;;
37383;SDS011;23258;49.718;11.082;2023-02-21T09:28:19;5.50;;;4.72;;
37383;SDS011;23258;49.718;11.082;2023-02-21T09:30:49;5.90;;;4.72;;
37383;SDS011;23258;49.718;11.082;2023-02-21T09:33:19;5.40;;;4.25;;
37383;SDS011;23258;49.718;11.082;2023-02-21T09:35:50;4.68;;;4.22;;
37383;SDS011;23258;49.718;11.082;2023-02-21T09:38:22;5.80;;;4.53;;
37383;SDS011;23258;49.718;11.082;2023-02-21T09:40:53;5.15;;;4.10;;
37383;SDS011;23258;49.718;11.082;2023-02-21T09:43:26;5.03;;;4.10;;
37383;SDS011;23258;49.718;11.082;2023-02-21T09:45:57;4.95;;;4.40;;
37383;SDS011;23258;49.718;11.082;2023-02-21T09:48:27;4.70;;;4.30;;
37383;SDS011;23258;49.718;11.082;2023-02-21T09:50:58;11.00;;;5.20;;
37383;SDS011;23258;49.718;11.082;2023-02-21T09:53:32;4.75;;;3.85;;
37383;SDS011;23258;49.718;11.082;2023-02-21T09:56:05;5.18;;;4.40;;
37383;SDS011;23258;49.718;11.082;2023-02-21T09:58:36;4.90;;;4.38;;
37383;SDS011;23258;49.718;11.082;2023-02-21T10:01:07;4.25;;;3.85;;
37383;SDS011;23258;49.718;11.082;2023-02-21T10:03:43;4.97;;;4.47;;
37383;SDS011;23258;49.718;11.082;2023-02-21T10:06:18;7.55;;;4.65;;
37383;SDS011;23258;49.718;11.082;2023-02-21T10:08:55;6.45;;;4.78;;
37383;SDS011;23258;49.718;11.082;2023-02-21T10:11:29;6.10;;;4.50;;
37383;SDS011;23258;49.718;11.082;2023-02-21T10:14:03;5.03;;;4.38;;
37383;SDS011;23258;49.718;11.082;2023-02-21T10:16:35;9.57;;;4.60;;
37383;SDS011;23258;49.718;11.082;2023-02-21T10:19:09;5.78;;;4.50;;
37383;SDS011;23258;49.718;11.082;2023-02-21T10:21:43;8.23;;;4.75;;
37383;SDS011;23258;49.718;11.082;2023-02-21T10:24:18;4.20;;;3.78;;
37383;SDS011;23258;49.718;11.082;2023-02-21T10:26:51;6.93;;;4.72;;
37383;SDS011;23258;49.718;11.082;2023-02-21T10:29:23;6.00;;;4.40;;
37383;SDS011;23258;49.718;11.082;2023-02-21T10:31:55;5.50;;;4.45;;
37383;SDS011;23258;49.718;11.082;2023-02-21T10:34:27;5.70;;;4.65;;
37383;SDS011;23258;49.718;11.082;2023-02-21T10:37:00;5.63;;;4.25;;
37383;SDS011;23258;49.718;11.082;2023-02-21T10:39:35;4.72;;;4.15;;
37383;SDS011;23258;49.718;11.082;2023-02-21T10:42:08;6.22;;;4.20;;
37383;SDS011;23258;49.718;11.082;2023-02-21T10:44:41;7.40;;;4.80;;
37383;SDS011;23258;49.718;11.082;2023-02-21T10:47:13;5.50;;;3.88;;
37383;SDS011;23258;49.718;11.082;2023-02-21T10:49:45;8.02;;;3.83;;
37383;SDS011;23258;49.718;11.082;2023-02-21T10:52:17;5.07;;;3.97;;
37383;SDS011;23258;49.718;11.082;2023-02-21T10:55:03;4.95;;;4.13;;
37383;SDS011;23258;49.718;11.082;2023-02-21T10:57:39;5.50;;;3.70;;
37383;SDS011;23258;49.718;11.082;2023-02-21T11:00:18;5.18;;;4.07;;
37383;SDS011;23258;49.718;11.082;2023-02-21T11:02:48;7.28;;;3.83;;
37383;SDS011;23258;49.718;11.082;2023-02-21T11:05:19;4.65;;;3.90;;
37383;SDS011;23258;49.718;11.082;2023-02-21T11:07:56;5.30;;;4.10;;
37383;SDS011;23258;49.718;11.082;2023-02-21T11:10:31;6.43;;;4.18;;
37383;SDS011;23258;49.718;11.082;2023-02-21T11:13:05;5.22;;;4.72;;
37383;SDS011;23258;49.718;11.082;2023-02-21T11:15:35;6.50;;;4.03;;
37383;SDS011;23258;49.718;11.082;2023-02-21T11:18:10;6.80;;;4.70;;
37383;SDS011;23258;49.718;11.082;2023-02-21T11:20:40;4.72;;;3.53;;
37383;SDS011;23258;49.718;11.082;2023-02-21T11:23:17;4.32;;;3.92;;
37383;SDS011;23258;49.718;11.082;2023-02-21T11:25:50;3.75;;;3.42;;
37383;SDS011;23258;49.718;11.082;2023-02-21T11:28:21;7.47;;;4.10;;
37383;SDS011;23258;49.718;11.082;2023-02-21T11:31:02;7.25;;;4.05;;
37383;SDS011;23258;49.718;11.082;2023-02-21T11:33:38;4.70;;;3.70;;
37383;SDS011;23258;49.718;11.082;2023-02-21T11:36:09;4.18;;;3.65;;
37383;SDS011;23258;49.718;11.082;2023-02-21T11:38:40;4.28;;;3.88;;
37383;SDS011;23258;49.718;11.082;2023-02-21T11:41:20;5.40;;;3.60;;
37383;SDS011;23258;49.718;11.082;2023-02-21T11:43:50;5.50;;;3.42;;
37383;SDS011;23258;49.718;11.082;2023-02-21T11:46:27;4.85;;;3.45;;
37383;SDS011;23258;49.718;11.082;2023-02-21T11:49:01;3.97;;;3.60;;
37383;SDS011;23258;49.718;11.082;2023-02-21T11:51:33;4.55;;;3.33;;
37383;SDS011;23258;49.718;11.082;2023-02-21T11:54:05;4.30;;;3.15;;
37383;SDS011;23258;49.718;11.082;2023-02-21T11:56:50;3.50;;;3.20;;
37383;SDS011;23258;49.718;11.082;2023-02-21T11:59:26;3.60;;;3.03;;
37383;SDS011;23258;49.718;11.082;2023-02-21T12:02:01;7.10;;;3.40;;
37383;SDS011;23258;49.718;11.082;2023-02-21T12:04:35;5.20;;;3.38;;
37383;SDS011;23258;49.718;11.082;2023-02-21T12:07:11;3.75;;;2.90;;
37383;SDS011;23258;49.718;11.082;2023-02-21T12:09:46;3.15;;;2.85;;
37383;SDS011;23258;49.718;11.082;2023-02-21T12:12:27;3.75;;;3.33;;
37383;SDS011;23258;49.718;11.082;2023-02-21T12:15:04;3.15;;;2.83;;
37383;SDS011;23258;49.718;11.082;2023-02-21T12:20:23;3.55;;;3.25;;
37383;SDS011;23258;49.718;11.082;2023-02-21T12:23:03;4.90;;;3.10;;
37383;SDS011;23258;49.718;11.082;2023-02-21T12:25:39;3.88;;;3.05;;
37383;SDS011;23258;49.718;11.082;2023-02-21T12:28:16;2.60;;;2.40;;
37383;SDS011;23258;49.718;11.082;2023-02-21T12:30:55;2.95;;;2.67;;
37383;SDS011;23258;49.718;11.082;2023-02-21T12:33:31;3.90;;;2.88;;
37383;SDS011;23258;49.718;11.082;2023-02-21T12:36:14;2.75;;;2.40;;
37383;SDS011;23258;49.718;11.082;2023-02-21T12:38:50;2.03;;;1.92;;
37383;SDS011;23258;49.718;11.082;2023-02-21T12:41:30;2.20;;;2.00;;
37383;SDS011;23258;49.718;11.082;2023-02-21T12:44:10;2.35;;;2.15;;
37383;SDS011;23258;49.718;11.082;2023-02-21T12:46:42;2.00;;;1.90;;
37383;SDS011;23258;49.718;11.082;2023-02-21T12:49:15;2.60;;;1.88;;
37383;SDS011;23258;49.718;11.082;2023-02-21T12:51:48;3.22;;;2.00;;
37383;SDS011;23258;49.718;11.082;2023-02-21T12:54:19;1.63;;;1.52;;
37383;SDS011;23258;49.718;11.082;2023-02-21T12:56:51;2.47;;;1.98;;
37383;SDS011;23258;49.718;11.082;2023-02-21T12:59:27;2.97;;;2.10;;
37383;SDS011;23258;49.718;11.082;2023-02-21T13:01:59;2.25;;;2.05;;
37383;SDS011;23258;49.718;11.082;2023-02-21T13:04:32;1.85;;;1.70;;
37383;SDS011;23258;49.718;11.082;2023-02-21T13:07:04;1.90;;;1.73;;
37383;SDS011;23258;49.718;11.082;2023-02-21T13:09:37;4.50;;;2.00;;
37383;SDS011;23258;49.718;11.082;2023-02-21T13:12:08;1.75;;;1.65;;
37383;SDS011;23258;49.718;11.082;2023-02-21T13:14:42;1.85;;;1.75;;
37383;SDS011;23258;49.718;11.082;2023-02-21T13:17:13;2.63;;;2.17;;
37383;SDS011;23258;49.718;11.082;2023-02-21T13:19:44;1.88;;;1.77;;
37383;SDS011;23258;49.718;11.082;2023-02-21T13:25:34;2.85;;;1.88;;
37383;SDS011;23258;49.718;11.082;2023-02-21T13:28:05;2.42;;;2.03;;
37383;SDS011;23258;49.718;11.082;2023-02-21T13:30:40;1.92;;;1.80;;
37383;SDS011;23258;49.718;11.082;2023-02-21T13:33:25;1.75;;;1.65;;
37383;SDS011;23258;49.718;11.082;2023-02-21T13:35:56;2.05;;;1.95;;
37383;SDS011;23258;49.718;11.082;2023-02-21T13:38:27;2.35;;;1.95;;
37383;SDS011;23258;49.718;11.082;2023-02-21T13:41:05;1.80;;;1.70;;
37383;SDS011;23258;49.718;11.082;2023-02-21T13:43:36;2.00;;;1.85;;
37383;SDS011;23258;49.718;11.082;2023-02-21T13:57:44;3.08;;;1.60;;
37383;SDS011;23258;49.718;11.082;2023-02-21T14:03:02;3.00;;;1.98;;
37383;SDS011;23258;49.718;11.082;2023-02-21T14:08:30;2.17;;;1.65;;
37383;SDS011;23258;49.718;11.082;2023-02-21T14:11:10;2.10;;;1.90;;
37383;SDS011;23258;49.718;11.082;2023-02-21T14:13:45;1.90;;;1.80;;
37383;SDS011;23258;49.718;11.082;2023-02-21T14:16:18;1.83;;;1.73;;
37383;SDS011;23258;49.718;11.082;2023-02-21T14:18:54;1.60;;;1.50;;
37383;SDS011;23258;49.718;11.082;2023-02-21T14:21:24;1.48;;;1.38;;
37383;SDS011;23258;49.718;11.082;2023-02-21T14:23:55;1.38;;;1.30;;
37383;SDS011;23258;49.718;11.082;2023-02-21T14:26:33;1.40;;;1.30;;
37383;SDS011;23258;49.718;11.082;2023-02-21T14:29:14;2.33;;;1.88;;
37383;SDS011;23258;49.718;11.082;2023-02-21T14:31:45;2.35;;;1.73;;
37383;SDS011;23258;49.718;11.082;2023-02-21T14:34:19;2.75;;;1.77;;
37383;SDS011;23258;49.718;11.082;2023-02-21T14:36:50;2.28;;;1.58;;
37383;SDS011;23258;49.718;11.082;2023-02-21T14:39:21;2.13;;;1.45;;
37383;SDS011;23258;49.718;11.082;2023-02-21T14:41:58;1.98;;;1.58;;
37383;SDS011;23258;49.718;11.082;2023-02-21T14:44:34;1.63;;;1.40;;
37383;SDS011;23258;49.718;11.082;2023-02-21T14:47:07;2.55;;;2.22;;
37383;SDS011;23258;49.718;11.082;2023-02-21T14:49:52;1.95;;;1.55;;
37383;SDS011;23258;49.718;11.082;2023-02-21T14:55:18;3.53;;;1.60;;
37383;SDS011;23258;49.718;11.082;2023-02-21T14:58:08;0.85;;;0.85;;
37383;SDS011;23258;49.718;11.082;2023-02-21T15:00:44;1.70;;;1.60;;
37383;SDS011;23258;49.718;11.082;2023-02-21T15:03:16;1.35;;;1.25;;
37383;SDS011;23258;49.718;11.082;2023-02-21T15:05:55;1.73;;;1.20;;
37383;SDS011;23258;49.718;11.082;2023-02-21T15:08:29;2.80;;;1.77;;
37383;SDS011;23258;49.718;11.082;2023-02-21T15:11:13;1.67;;;1.35;;
37383;SDS011;23258;49.718;11.082;2023-02-21T15:13:46;2.17;;;1.60;;
37383;SDS011;23258;49.718;11.082;2023-02-21T15:16:16;1.73;;;1.63;;
37383;SDS011;23258;49.718;11.082;2023-02-21T15:18:55;2.17;;;2.03;;
37383;SDS011;23258;49.718;11.082;2023-02-21T15:21:28;2.28;;;1.85;;
37383;SDS011;23258;49.718;11.082;2023-02-21T15:23:59;2.47;;;2.03;;
37383;SDS011;23258;49.718;11.082;2023-02-21T15:26:29;2.35;;;1.48;;
37383;SDS011;23258;49.718;11.082;2023-02-21T15:29:03;2.80;;;1.77;;
37383;SDS011;23258;49.718;11.082;2023-02-21T15:31:34;2.05;;;1.92;;
37383;SDS011;23258;49.718;11.082;2023-02-21T15:34:04;2.28;;;2.08;;
37383;SDS011;23258;49.718;11.082;2023-02-21T15:36:36;2.25;;;2.03;;
37383;SDS011;23258;49.718;11.082;2023-02-21T15:39:07;1.95;;;1.77;;
37383;SDS011;23258;49.718;11.082;2023-02-21T15:41:41;2.58;;;1.92;;
37383;SDS011;23258;49.718;11.082;2023-02-21T15:44:13;1.63;;;1.52;;
37383;SDS011;23258;49.718;11.082;2023-02-21T15:46:45;1.73;;;1.63;;